Aviation Digital Data Service (ADDS)

Output produced by METARs form (1016 UTC 26 July 2016)
found at http://www.aviationweather.gov/adds/metars/
 
KBMI 261010Z 2610/2706 35004KT P6SM SKC 
     TEMPO 2610/2613 5SM BR FEW004 
     FM261400 07007KT P6SM SCT040